createdAt,value
2023-02-16T00:02:40.291Z,24.75
2023-02-16T00:05:31.819Z,23.85
2023-02-16T00:08:20.315Z,28.65
2023-02-16T00:11:35.809Z,25.47
2023-02-16T00:14:26.584Z,31.48
2023-02-16T00:17:15.176Z,29.30
2023-02-16T00:20:03.726Z,31.48
2023-02-16T00:22:52.325Z,24.77
2023-02-16T00:25:41.229Z,26.63
2023-02-16T00:28:30.024Z,27.50
2023-02-16T00:31:22.770Z,24.48
2023-02-16T00:34:27.259Z,34.85
2023-02-16T00:37:15.962Z,24.73
2023-02-16T00:40:04.612Z,29.20
2023-02-16T00:42:53.196Z,23.63
2023-02-16T00:45:41.927Z,25.88
2023-02-16T00:48:31.821Z,27.60
2023-02-16T00:51:25.885Z,24.45
2023-02-16T00:54:15.054Z,24.80
2023-02-16T00:57:03.564Z,21.93
2023-02-16T00:59:59.142Z,23.13
2023-02-16T01:02:49.931Z,28.30
2023-02-16T01:05:39.928Z,20.92
2023-02-16T01:08:45.917Z,23.27
2023-02-16T01:11:34.617Z,23.52
2023-02-16T01:14:23.211Z,24.33
2023-02-16T01:17:11.940Z,26.58
2023-02-16T01:20:00.458Z,27.30
2023-02-16T01:22:50.321Z,24.30
2023-02-16T01:25:39.100Z,30.45
2023-02-16T01:28:28.136Z,31.15
2023-02-16T01:31:17.506Z,29.55
2023-02-16T01:34:06.104Z,26.17
2023-02-16T01:36:54.535Z,24.23
2023-02-16T01:39:44.361Z,35.28
2023-02-16T01:42:38.224Z,36.63
2023-02-16T01:45:34.601Z,31.58
2023-02-16T01:48:26.897Z,35.10
2023-02-16T01:51:20.508Z,31.23
2023-02-16T01:54:16.102Z,32.88
2023-02-16T01:57:22.445Z,29.45
2023-02-16T02:00:17.633Z,27.98
2023-02-16T02:03:29.892Z,25.80
2023-02-16T02:06:22.182Z,26.48
2023-02-16T02:09:18.947Z,27.45
2023-02-16T02:12:17.892Z,27.10
2023-02-16T02:15:09.242Z,27.87
2023-02-16T02:17:57.861Z,25.67
2023-02-16T02:21:16.071Z,28.25
2023-02-16T02:24:42.300Z,28.10
2023-02-16T02:27:34.768Z,25.35
2023-02-16T02:31:06.441Z,25.95
2023-02-16T02:34:05.507Z,25.73
2023-02-16T02:37:08.948Z,25.58
2023-02-16T02:40:04.016Z,26.88
2023-02-16T02:43:03.100Z,25.08
2023-02-16T02:45:56.472Z,24.55
2023-02-16T02:48:44.991Z,25.55
2023-02-16T02:51:33.935Z,28.88
2023-02-16T02:54:42.728Z,21.20
2023-02-16T02:57:55.209Z,23.85
2023-02-16T03:00:47.870Z,21.55
2023-02-16T03:03:40.672Z,18.75
2023-02-16T03:06:31.487Z,19.55
2023-02-16T03:09:20.854Z,19.33
2023-02-16T03:12:28.409Z,18.50
2023-02-16T03:15:17.380Z,22.00
2023-02-16T03:18:27.346Z,22.33
2023-02-16T03:21:34.134Z,17.77
2023-02-16T03:24:46.695Z,16.23
2023-02-16T03:27:57.164Z,21.30
2023-02-16T03:30:48.037Z,20.92
2023-02-16T03:33:38.694Z,20.05
2023-02-16T03:36:30.066Z,18.95
2023-02-16T03:39:19.560Z,20.23
2023-02-16T03:42:08.512Z,19.05
2023-02-16T03:44:57.016Z,15.27
2023-02-16T03:47:45.529Z,19.92
2023-02-16T03:50:35.472Z,17.52
2023-02-16T03:53:24.030Z,18.38
2023-02-16T03:56:12.541Z,17.57
2023-02-16T03:59:01.030Z,20.17
2023-02-16T04:01:49.539Z,27.23
2023-02-16T04:04:38.171Z,18.50
2023-02-16T04:07:29.077Z,18.65
2023-02-16T04:10:19.207Z,21.73
2023-02-16T04:13:06.720Z,19.08
2023-02-16T04:15:55.192Z,20.48
2023-02-16T04:18:43.679Z,21.88
2023-02-16T04:21:32.168Z,20.40
2023-02-16T04:24:22.038Z,16.45
2023-02-16T04:27:10.614Z,14.52
2023-02-16T04:29:59.191Z,22.17
2023-02-16T04:32:47.838Z,17.92
2023-02-16T04:35:36.323Z,17.83
2023-02-16T04:38:26.126Z,21.65
2023-02-16T04:41:16.011Z,21.00
2023-02-16T04:44:04.798Z,21.02
2023-02-16T04:46:53.356Z,22.70
2023-02-16T04:49:41.915Z,20.35
2023-02-16T04:52:30.813Z,19.42
2023-02-16T04:55:19.526Z,19.70
2023-02-16T04:58:09.372Z,19.35
2023-02-16T05:00:57.907Z,17.77
2023-02-16T05:03:46.349Z,18.00
2023-02-16T05:06:34.901Z,17.05
2023-02-16T05:09:23.369Z,16.38
2023-02-16T05:12:29.857Z,21.67
2023-02-16T05:15:19.922Z,21.10
2023-02-16T05:18:08.429Z,24.17
2023-02-16T05:21:14.071Z,16.63
2023-02-16T05:24:04.539Z,19.85
2023-02-16T05:26:53.093Z,19.47
2023-02-16T05:29:41.652Z,15.77
2023-02-16T05:32:31.610Z,23.27
2023-02-16T05:35:20.968Z,17.83
2023-02-16T05:38:09.411Z,16.63
2023-02-16T05:40:58.047Z,18.08
2023-02-16T05:43:46.704Z,18.88
2023-02-16T05:46:37.512Z,23.65
2023-02-16T05:49:27.506Z,17.40
2023-02-16T05:52:15.953Z,23.20
2023-02-16T05:55:04.730Z,19.52
2023-02-16T05:57:53.179Z,22.58
2023-02-16T06:00:41.667Z,21.30
2023-02-16T06:03:30.227Z,21.05
2023-02-16T06:06:20.716Z,23.25
2023-02-16T06:09:10.204Z,24.85
2023-02-16T06:11:58.751Z,24.05
2023-02-16T06:14:47.261Z,29.45
2023-02-16T06:17:35.902Z,22.50
2023-02-16T06:20:24.440Z,21.35
2023-02-16T06:23:15.479Z,19.83
2023-02-16T06:26:03.998Z,19.30
2023-02-16T06:28:52.941Z,19.45
2023-02-16T06:31:41.567Z,21.60
2023-02-16T06:34:30.147Z,23.67
2023-02-16T06:37:18.747Z,23.80
2023-02-16T06:40:11.078Z,25.10
2023-02-16T06:42:59.566Z,20.13
2023-02-16T06:45:48.434Z,23.73
2023-02-16T06:48:36.977Z,20.48
2023-02-16T06:51:25.609Z,23.92
2023-02-16T06:54:14.897Z,20.20
2023-02-16T06:57:04.859Z,22.48
2023-02-16T06:59:53.370Z,18.75
2023-02-16T07:02:43.797Z,18.67
2023-02-16T07:05:32.415Z,30.17
2023-02-16T07:08:20.970Z,22.13
2023-02-16T07:11:09.457Z,18.95
2023-02-16T07:13:59.493Z,23.30
2023-02-16T07:16:48.051Z,28.10
2023-02-16T07:19:36.809Z,24.23
2023-02-16T07:22:25.299Z,23.33
2023-02-16T07:25:13.812Z,23.67
2023-02-16T07:28:02.374Z,19.80
2023-02-16T07:30:52.235Z,18.50
2023-02-16T07:33:41.604Z,28.77
2023-02-16T07:36:30.127Z,24.88
2023-02-16T07:39:18.725Z,19.05
2023-02-16T07:42:07.311Z,25.75
2023-02-16T07:44:55.876Z,20.00
2023-02-16T07:47:45.908Z,21.17
2023-02-16T07:50:34.507Z,19.40
2023-02-16T07:53:23.057Z,27.48
2023-02-16T07:56:20.607Z,22.13
2023-02-16T07:59:09.113Z,18.15
2023-02-16T08:01:57.754Z,17.15
2023-02-16T08:04:48.591Z,19.40
2023-02-16T08:07:37.128Z,18.43
2023-02-16T08:10:25.631Z,15.98
2023-02-16T08:13:14.204Z,19.17
2023-02-16T08:16:02.984Z,22.65
2023-02-16T08:18:52.589Z,21.55
2023-02-16T08:21:42.518Z,18.42
2023-02-16T08:24:31.383Z,19.52
2023-02-16T08:27:19.854Z,21.25
2023-02-16T08:30:12.811Z,26.52
2023-02-16T08:33:01.938Z,24.40
2023-02-16T08:35:50.502Z,20.15
2023-02-16T08:38:43.829Z,20.42
2023-02-16T08:41:34.361Z,19.27
2023-02-16T08:44:25.095Z,19.00
2023-02-16T08:47:16.809Z,19.00
2023-02-16T08:50:05.678Z,19.48
2023-02-16T08:52:54.619Z,19.45
2023-02-16T08:55:52.032Z,15.55
2023-02-16T08:58:41.024Z,17.80
2023-02-16T09:01:30.080Z,16.15
2023-02-16T09:04:20.340Z,19.25
2023-02-16T09:07:08.928Z,16.00
2023-02-16T09:09:57.967Z,14.82
2023-02-16T09:12:49.880Z,16.35
2023-02-16T09:15:38.857Z,18.57
2023-02-16T09:18:27.805Z,15.15
2023-02-16T09:21:18.220Z,17.88
2023-02-16T09:24:07.215Z,16.50
2023-02-16T09:26:55.702Z,17.43
2023-02-16T09:29:45.595Z,21.90
2023-02-16T09:32:34.573Z,19.42
2023-02-16T09:35:23.102Z,18.00
2023-02-16T09:38:11.775Z,20.67
2023-02-16T09:41:00.983Z,23.42
2023-02-16T09:43:56.046Z,23.63
2023-02-16T09:46:47.119Z,26.67
2023-02-16T09:49:39.627Z,51.20
2023-02-16T09:52:37.029Z,51.63
2023-02-16T09:55:31.019Z,39.07
2023-02-16T09:58:24.127Z,51.10
2023-02-16T10:01:24.380Z,44.67
2023-02-16T10:04:29.985Z,39.35
2023-02-16T10:07:31.715Z,37.17
2023-02-16T10:10:24.544Z,45.85
2023-02-16T10:13:20.198Z,44.90
2023-02-16T10:16:14.868Z,49.80
2023-02-16T10:19:10.137Z,43.90
2023-02-16T10:22:04.775Z,44.67
2023-02-16T10:25:01.043Z,49.97
2023-02-16T10:27:53.911Z,49.45
2023-02-16T10:30:48.780Z,57.90
2023-02-16T10:33:43.553Z,65.03
2023-02-16T10:36:45.488Z,58.27
2023-02-16T10:39:42.430Z,58.70
2023-02-16T10:42:36.003Z,59.03
2023-02-16T10:45:31.976Z,58.93
2023-02-16T10:48:21.744Z,61.92
2023-02-16T10:51:13.105Z,59.35
2023-02-16T10:54:05.624Z,62.95
2023-02-16T10:57:01.009Z,54.10
2023-02-16T10:59:49.865Z,48.30
2023-02-16T11:02:41.891Z,51.88
2023-02-16T11:05:36.801Z,55.30
2023-02-16T11:08:25.860Z,59.13
2023-02-16T11:11:14.341Z,52.15
2023-02-16T11:14:09.122Z,54.55
2023-02-16T11:17:05.772Z,52.63
2023-02-16T11:19:57.478Z,49.38
2023-02-16T11:22:46.213Z,55.77
2023-02-16T11:25:34.776Z,49.05
2023-02-16T11:28:29.590Z,51.33
2023-02-16T11:31:27.001Z,62.08
2023-02-16T11:34:25.948Z,51.03
2023-02-16T11:37:28.369Z,39.70
2023-02-16T11:40:23.092Z,62.40
2023-02-16T11:43:18.679Z,52.13
2023-02-16T11:46:13.285Z,47.33
2023-02-16T11:51:55.804Z,43.17
2023-02-16T11:54:50.395Z,41.45
2023-02-16T11:57:39.203Z,44.75
2023-02-16T12:00:28.051Z,45.50
2023-02-16T12:03:30.490Z,41.35
2023-02-16T12:06:32.312Z,47.17
2023-02-16T12:09:31.101Z,52.17
2023-02-16T12:12:29.447Z,52.08
2023-02-16T12:15:25.781Z,50.38
2023-02-16T12:18:26.287Z,49.30
2023-02-16T12:21:22.797Z,50.35
2023-02-16T12:24:32.073Z,48.47
2023-02-16T12:27:26.825Z,56.93
2023-02-16T12:30:28.543Z,56.35
2023-02-16T12:33:31.726Z,51.00
2023-02-16T12:36:27.313Z,51.95
2023-02-16T12:39:22.740Z,44.10
2023-02-16T12:42:37.099Z,49.58
2023-02-16T12:45:29.302Z,49.15
2023-02-16T12:48:34.358Z,41.20
2023-02-16T12:51:27.276Z,42.75
2023-02-16T12:54:22.139Z,44.28
2023-02-16T12:57:14.832Z,38.08
2023-02-16T13:00:11.595Z,38.27
2023-02-16T13:03:10.178Z,50.88
2023-02-16T13:06:09.538Z,38.47
2023-02-16T13:09:08.022Z,35.97
2023-02-16T13:12:02.377Z,42.27
2023-02-16T13:15:02.255Z,40.35
2023-02-16T13:17:56.679Z,40.15
2023-02-16T13:20:49.796Z,39.85
2023-02-16T13:23:53.658Z,42.55
2023-02-16T13:26:57.568Z,41.63
2023-02-16T13:30:28.770Z,34.67
2023-02-16T13:33:44.269Z,38.58
2023-02-16T13:36:55.220Z,38.80
2023-02-16T13:39:56.847Z,41.25
2023-02-16T13:43:11.870Z,42.70
2023-02-16T13:46:01.650Z,41.42
2023-02-16T13:48:53.532Z,48.33
2023-02-16T13:51:46.288Z,38.70
2023-02-16T13:54:37.137Z,35.58
2023-02-16T13:58:10.103Z,41.40
2023-02-16T14:00:59.149Z,52.47
2023-02-16T14:03:47.830Z,44.03
2023-02-16T14:06:39.923Z,52.33
2023-02-16T14:09:48.811Z,42.13
2023-02-16T14:12:40.851Z,45.97
2023-02-16T14:15:29.366Z,42.72
2023-02-16T14:18:26.923Z,44.42
2023-02-16T14:21:22.009Z,39.67
2023-02-16T14:24:26.139Z,52.33
2023-02-16T14:27:14.685Z,40.72
2023-02-16T14:30:04.551Z,61.75
2023-02-16T14:33:00.439Z,45.17
2023-02-16T14:36:09.079Z,49.70
2023-02-16T14:38:59.426Z,45.10
2023-02-16T14:41:49.453Z,34.33
2023-02-16T14:44:55.364Z,39.60
2023-02-16T14:47:55.393Z,38.90
2023-02-16T14:51:02.664Z,37.33
2023-02-16T14:54:27.899Z,49.30
2023-02-16T14:57:22.974Z,54.85
2023-02-16T15:00:19.880Z,56.67
2023-02-16T15:03:18.198Z,46.20
2023-02-16T15:06:07.618Z,38.25
2023-02-16T15:08:59.972Z,40.08
2023-02-16T15:12:09.837Z,39.33
2023-02-16T15:15:01.085Z,60.07
2023-02-16T15:17:50.435Z,58.10
2023-02-16T15:20:39.699Z,55.08
2023-02-16T15:23:30.740Z,51.25
2023-02-16T15:26:20.611Z,50.93
2023-02-16T15:29:23.819Z,39.38
2023-02-16T15:32:17.361Z,37.83
2023-02-16T15:35:13.256Z,56.73
2023-02-16T15:38:03.597Z,49.03
2023-02-16T15:40:54.029Z,50.08
2023-02-16T15:43:46.624Z,37.93
2023-02-16T15:46:37.060Z,54.28
2023-02-16T15:49:30.500Z,41.03
2023-02-16T15:52:21.617Z,49.47
2023-02-16T15:55:13.287Z,62.55
2023-02-16T15:58:02.109Z,51.35
2023-02-16T16:00:50.858Z,61.57
2023-02-16T16:03:46.498Z,62.90
2023-02-16T16:06:41.699Z,49.60
2023-02-16T16:09:32.575Z,54.67
2023-02-16T16:12:23.090Z,52.45
2023-02-16T16:15:16.866Z,46.53
2023-02-16T16:18:06.754Z,45.95
2023-02-16T16:21:01.035Z,50.78
2023-02-16T16:24:02.292Z,39.60
2023-02-16T16:26:55.572Z,53.83
2023-02-16T16:29:45.736Z,58.55
2023-02-16T16:32:34.487Z,50.65
2023-02-16T16:35:23.879Z,48.80
2023-02-16T16:38:23.466Z,64.55
2023-02-16T16:41:27.725Z,50.70
2023-02-16T16:44:33.260Z,50.47
2023-02-16T16:47:29.491Z,51.70
2023-02-16T16:50:39.441Z,66.80
2023-02-16T16:53:44.192Z,63.40
2023-02-16T16:56:37.356Z,62.13
2023-02-16T16:59:25.874Z,68.57
2023-02-16T17:02:14.487Z,55.33
2023-02-16T17:05:02.903Z,49.15
2023-02-16T17:07:52.018Z,48.15
2023-02-16T17:10:42.037Z,49.92
2023-02-16T17:13:32.796Z,49.80
2023-02-16T17:16:25.496Z,49.55
2023-02-16T17:19:15.478Z,47.17
2023-02-16T17:22:11.436Z,49.13
2023-02-16T17:24:59.956Z,47.42
2023-02-16T17:27:48.596Z,57.55
2023-02-16T17:30:38.563Z,59.38
2023-02-16T17:33:27.086Z,52.78
2023-02-16T17:36:17.302Z,49.47
2023-02-16T17:39:06.301Z,56.10
2023-02-16T17:41:55.063Z,53.17
2023-02-16T17:44:43.561Z,47.75
2023-02-16T17:47:33.530Z,50.83
2023-02-16T17:50:22.315Z,55.03
2023-02-16T17:53:13.042Z,63.03
2023-02-16T17:56:01.538Z,53.55
2023-02-16T17:58:50.655Z,50.72
2023-02-16T18:01:39.279Z,53.90
2023-02-16T18:04:29.255Z,54.25
2023-02-16T18:07:19.228Z,58.85
2023-02-16T18:10:08.694Z,55.60
2023-02-16T18:12:57.224Z,62.00
2023-02-16T18:15:48.621Z,72.70
2023-02-16T18:18:39.297Z,56.80
2023-02-16T18:21:29.322Z,56.45
2023-02-16T18:24:17.783Z,60.27
2023-02-16T18:27:06.524Z,59.90
2023-02-16T18:29:55.236Z,60.20
2023-02-16T18:32:45.011Z,69.18
2023-02-16T18:35:33.443Z,63.80
2023-02-16T18:38:24.087Z,114.55
2023-02-16T18:41:14.249Z,77.15
2023-02-16T18:44:03.190Z,68.57
2023-02-16T18:46:51.657Z,81.47
2023-02-16T18:49:40.282Z,66.63
2023-02-16T18:52:28.865Z,87.65
2023-02-16T18:55:19.051Z,85.82
2023-02-16T18:58:08.737Z,69.07
2023-02-16T19:00:57.322Z,79.70
2023-02-16T19:03:46.002Z,63.95
2023-02-16T19:06:34.833Z,73.57
2023-02-16T19:09:23.422Z,58.22
2023-02-16T19:12:13.430Z,62.40
2023-02-16T19:15:02.107Z,54.53
2023-02-16T19:17:50.753Z,69.47
2023-02-16T19:20:39.213Z,63.28
2023-02-16T19:23:27.690Z,57.55
2023-02-16T19:26:17.461Z,61.35
2023-02-16T19:29:07.598Z,59.37
2023-02-16T19:31:56.235Z,58.17
2023-02-16T19:34:44.801Z,63.20
2023-02-16T19:37:33.349Z,56.87
2023-02-16T19:40:22.038Z,63.72
2023-02-16T19:43:10.491Z,64.13
2023-02-16T19:46:00.479Z,73.20
2023-02-16T19:48:49.435Z,72.60
2023-02-16T19:51:38.026Z,86.82
2023-02-16T19:54:26.526Z,86.65
2023-02-16T19:57:15.033Z,70.10
2023-02-16T20:00:05.730Z,75.13
2023-02-16T20:02:55.745Z,66.93
2023-02-16T20:05:44.889Z,75.18
2023-02-16T20:08:33.546Z,65.10
2023-02-16T20:11:23.918Z,67.75
2023-02-16T20:14:13.321Z,83.57
2023-02-16T20:17:01.924Z,80.93
2023-02-16T20:19:51.789Z,75.53
2023-02-16T20:22:40.361Z,77.20
2023-02-16T20:25:28.926Z,72.35
2023-02-16T20:28:20.948Z,62.17
2023-02-16T20:31:12.747Z,69.85
2023-02-16T20:34:02.050Z,67.60
2023-02-16T20:36:51.969Z,73.38
2023-02-16T20:39:40.545Z,68.82
2023-02-16T20:42:29.024Z,71.88
2023-02-16T20:45:17.542Z,73.47
2023-02-16T20:48:06.104Z,64.03
2023-02-16T20:50:56.191Z,61.60
2023-02-16T20:53:46.321Z,63.35
2023-02-16T20:56:34.952Z,70.78
2023-02-16T20:59:23.444Z,70.23
2023-02-16T21:02:13.107Z,63.80
2023-02-16T21:05:01.617Z,61.15
2023-02-16T21:07:50.197Z,56.92
2023-02-16T21:10:40.477Z,56.67
2023-02-16T21:13:29.051Z,59.95
2023-02-16T21:16:17.674Z,49.15
2023-02-16T21:19:17.323Z,48.33
2023-02-16T21:22:10.961Z,51.10
2023-02-16T21:24:59.532Z,49.40
2023-02-16T21:27:49.451Z,44.43
2023-02-16T21:30:38.105Z,50.33
2023-02-16T21:33:26.646Z,46.10
2023-02-16T21:36:17.166Z,39.57
2023-02-16T21:39:05.742Z,41.50
2023-02-16T21:41:53.162Z,34.80
2023-02-16T21:44:44.233Z,40.05
2023-02-16T21:47:50.228Z,30.73
2023-02-16T21:50:41.034Z,33.95
2023-02-16T21:53:30.924Z,26.75
2023-02-16T21:56:28.170Z,32.13
2023-02-16T21:59:19.284Z,28.20
2023-02-16T22:02:11.713Z,23.30
2023-02-16T22:05:00.201Z,23.08
2023-02-16T22:07:48.696Z,25.60
2023-02-16T22:10:37.475Z,19.15
2023-02-16T22:13:25.933Z,22.73
2023-02-16T22:16:17.164Z,17.42
2023-02-16T22:19:08.700Z,21.83
2023-02-16T22:21:57.360Z,19.48
2023-02-16T22:24:45.809Z,15.43
2023-02-16T22:27:34.436Z,15.25
2023-02-16T22:30:23.079Z,15.63
2023-02-16T22:33:11.609Z,13.20
2023-02-16T22:36:07.010Z,16.33
2023-02-16T22:38:56.243Z,15.68
2023-02-16T22:41:44.943Z,14.40
2023-02-16T22:44:33.422Z,14.07
2023-02-16T22:47:22.025Z,13.05
2023-02-16T22:50:11.222Z,14.25
2023-02-16T22:53:01.096Z,14.63
2023-02-16T22:55:49.680Z,12.93
2023-02-16T22:58:38.160Z,15.00
2023-02-16T23:01:29.138Z,13.43
2023-02-16T23:04:17.965Z,14.10
2023-02-16T23:07:06.589Z,12.33
2023-02-16T23:09:56.535Z,10.57
2023-02-16T23:12:45.086Z,10.50
2023-02-16T23:15:33.917Z,11.83
2023-02-16T23:18:22.528Z,11.48
2023-02-16T23:21:16.259Z,13.35
2023-02-16T23:24:04.899Z,12.57
2023-02-16T23:26:56.378Z,16.15
2023-02-16T23:29:44.957Z,12.03
2023-02-16T23:32:33.684Z,11.82
2023-02-16T23:35:22.997Z,15.57
2023-02-16T23:38:15.127Z,14.02
2023-02-16T23:41:06.023Z,15.45
2023-02-16T23:43:56.726Z,11.95
2023-02-16T23:46:45.523Z,12.77
2023-02-16T23:49:34.090Z,13.95
2023-02-16T23:52:22.586Z,14.30
2023-02-16T23:55:11.178Z,13.23
2023-02-16T23:57:59.758Z,14.43
